sensor_id;sensor_type;location;lat;lon;timestamp;P1;durP1;ratioP1;P2;durP2;ratioP2
16510;SDS011;8368;48.772;8.754;2023-04-01T00:01:12;4.97;;;0.50;;
16510;SDS011;8368;48.772;8.754;2023-04-01T00:03:39;0.47;;;0.30;;
16510;SDS011;8368;48.772;8.754;2023-04-01T00:06:04;0.97;;;0.47;;
16510;SDS011;8368;48.772;8.754;2023-04-01T00:08:30;0.50;;;0.50;;
16510;SDS011;8368;48.772;8.754;2023-04-01T00:10:56;0.50;;;0.40;;
16510;SDS011;8368;48.772;8.754;2023-04-01T00:13:23;0.87;;;0.27;;
16510;SDS011;8368;48.772;8.754;2023-04-01T00:15:51;0.70;;;0.27;;
16510;SDS011;8368;48.772;8.754;2023-04-01T00:18:17;0.20;;;0.20;;
16510;SDS011;8368;48.772;8.754;2023-04-01T00:20:43;4.43;;;0.63;;
16510;SDS011;8368;48.772;8.754;2023-04-01T00:23:13;0.57;;;0.30;;
16510;SDS011;8368;48.772;8.754;2023-04-01T00:25:40;0.70;;;0.60;;
16510;SDS011;8368;48.772;8.754;2023-04-01T00:28:06;0.40;;;0.40;;
16510;SDS011;8368;48.772;8.754;2023-04-01T00:30:32;0.27;;;0.27;;
16510;SDS011;8368;48.772;8.754;2023-04-01T00:32:58;0.63;;;0.37;;
16510;SDS011;8368;48.772;8.754;2023-04-01T00:35:23;0.33;;;0.30;;
16510;SDS011;8368;48.772;8.754;2023-04-01T00:37:49;0.40;;;0.40;;
16510;SDS011;8368;48.772;8.754;2023-04-01T00:40:22;0.47;;;0.47;;
16510;SDS011;8368;48.772;8.754;2023-04-01T00:42:56;0.13;;;0.13;;
16510;SDS011;8368;48.772;8.754;2023-04-01T00:45:33;0.50;;;0.50;;
16510;SDS011;8368;48.772;8.754;2023-04-01T00:48:02;0.97;;;0.33;;
16510;SDS011;8368;48.772;8.754;2023-04-01T00:50:31;0.30;;;0.30;;
16510;SDS011;8368;48.772;8.754;2023-04-01T00:52:59;1.30;;;0.30;;
16510;SDS011;8368;48.772;8.754;2023-04-01T00:55:26;0.20;;;0.20;;
16510;SDS011;8368;48.772;8.754;2023-04-01T00:57:55;0.10;;;0.10;;
16510;SDS011;8368;48.772;8.754;2023-04-01T01:00:23;1.13;;;0.40;;
16510;SDS011;8368;48.772;8.754;2023-04-01T01:02:49;1.07;;;0.23;;
16510;SDS011;8368;48.772;8.754;2023-04-01T01:05:16;0.20;;;0.20;;
16510;SDS011;8368;48.772;8.754;2023-04-01T01:07:58;0.13;;;0.13;;
16510;SDS011;8368;48.772;8.754;2023-04-01T01:10:34;1.03;;;0.30;;
16510;SDS011;8368;48.772;8.754;2023-04-01T01:15:49;0.37;;;0.33;;
16510;SDS011;8368;48.772;8.754;2023-04-01T01:18:36;0.30;;;0.20;;
16510;SDS011;8368;48.772;8.754;2023-04-01T01:29:22;0.30;;;0.30;;
16510;SDS011;8368;48.772;8.754;2023-04-01T01:35:10;0.10;;;0.10;;
16510;SDS011;8368;48.772;8.754;2023-04-01T01:37:50;0.20;;;0.20;;
16510;SDS011;8368;48.772;8.754;2023-04-01T01:40:19;0.27;;;0.27;;
16510;SDS011;8368;48.772;8.754;2023-04-01T01:42:47;0.53;;;0.27;;
16510;SDS011;8368;48.772;8.754;2023-04-01T01:45:17;0.97;;;0.20;;
16510;SDS011;8368;48.772;8.754;2023-04-01T01:47:45;0.30;;;0.30;;
16510;SDS011;8368;48.772;8.754;2023-04-01T01:50:11;0.30;;;0.30;;
16510;SDS011;8368;48.772;8.754;2023-04-01T01:52:38;0.13;;;0.13;;
16510;SDS011;8368;48.772;8.754;2023-04-01T01:55:22;0.40;;;0.40;;
16510;SDS011;8368;48.772;8.754;2023-04-01T01:58:06;0.30;;;0.30;;
16510;SDS011;8368;48.772;8.754;2023-04-01T02:01:02;0.23;;;0.23;;
16510;SDS011;8368;48.772;8.754;2023-04-01T02:03:31;1.47;;;0.20;;
16510;SDS011;8368;48.772;8.754;2023-04-01T02:06:01;0.20;;;0.20;;
16510;SDS011;8368;48.772;8.754;2023-04-01T02:08:35;0.37;;;0.30;;
16510;SDS011;8368;48.772;8.754;2023-04-01T02:11:11;0.47;;;0.47;;
16510;SDS011;8368;48.772;8.754;2023-04-01T02:16:34;0.53;;;0.20;;
16510;SDS011;8368;48.772;8.754;2023-04-01T02:19:05;0.40;;;0.40;;
16510;SDS011;8368;48.772;8.754;2023-04-01T02:21:32;0.77;;;0.50;;
16510;SDS011;8368;48.772;8.754;2023-04-01T02:24:00;0.10;;;0.10;;
16510;SDS011;8368;48.772;8.754;2023-04-01T02:26:29;0.50;;;0.50;;
16510;SDS011;8368;48.772;8.754;2023-04-01T02:28:55;0.20;;;0.20;;
16510;SDS011;8368;48.772;8.754;2023-04-01T02:31:22;0.40;;;0.40;;
16510;SDS011;8368;48.772;8.754;2023-04-01T02:33:49;0.23;;;0.23;;
16510;SDS011;8368;48.772;8.754;2023-04-01T02:36:15;0.10;;;0.10;;
16510;SDS011;8368;48.772;8.754;2023-04-01T02:38:43;0.20;;;0.20;;
16510;SDS011;8368;48.772;8.754;2023-04-01T02:41:10;1.20;;;0.10;;
16510;SDS011;8368;48.772;8.754;2023-04-01T02:43:35;0.20;;;0.20;;
16510;SDS011;8368;48.772;8.754;2023-04-01T02:46:01;0.20;;;0.20;;
16510;SDS011;8368;48.772;8.754;2023-04-01T02:48:27;0.30;;;0.30;;
16510;SDS011;8368;48.772;8.754;2023-04-01T02:50:53;0.27;;;0.23;;
16510;SDS011;8368;48.772;8.754;2023-04-01T02:53:18;0.47;;;0.40;;
16510;SDS011;8368;48.772;8.754;2023-04-01T02:55:44;1.60;;;0.20;;
16510;SDS011;8368;48.772;8.754;2023-04-01T02:58:10;0.30;;;0.30;;
16510;SDS011;8368;48.772;8.754;2023-04-01T03:00:35;0.20;;;0.20;;
16510;SDS011;8368;48.772;8.754;2023-04-01T03:03:01;0.20;;;0.20;;
16510;SDS011;8368;48.772;8.754;2023-04-01T03:05:27;0.30;;;0.20;;
16510;SDS011;8368;48.772;8.754;2023-04-01T03:07:53;4.07;;;0.60;;
16510;SDS011;8368;48.772;8.754;2023-04-01T03:10:18;0.70;;;0.10;;
16510;SDS011;8368;48.772;8.754;2023-04-01T03:12:45;0.40;;;0.40;;
16510;SDS011;8368;48.772;8.754;2023-04-01T03:15:11;1.73;;;0.37;;
16510;SDS011;8368;48.772;8.754;2023-04-01T03:17:39;0.13;;;0.13;;
16510;SDS011;8368;48.772;8.754;2023-04-01T03:20:05;0.10;;;0.10;;
16510;SDS011;8368;48.772;8.754;2023-04-01T03:22:33;0.20;;;0.20;;
16510;SDS011;8368;48.772;8.754;2023-04-01T03:25:00;0.30;;;0.30;;
16510;SDS011;8368;48.772;8.754;2023-04-01T03:27:26;0.27;;;0.27;;
16510;SDS011;8368;48.772;8.754;2023-04-01T03:29:51;0.10;;;0.10;;
16510;SDS011;8368;48.772;8.754;2023-04-01T03:32:17;0.10;;;0.10;;
16510;SDS011;8368;48.772;8.754;2023-04-01T03:34:42;0.30;;;0.30;;
16510;SDS011;8368;48.772;8.754;2023-04-01T03:37:08;0.20;;;0.20;;
16510;SDS011;8368;48.772;8.754;2023-04-01T03:39:33;0.37;;;0.20;;
16510;SDS011;8368;48.772;8.754;2023-04-01T03:41:59;0.30;;;0.30;;
16510;SDS011;8368;48.772;8.754;2023-04-01T03:44:25;0.20;;;0.20;;
16510;SDS011;8368;48.772;8.754;2023-04-01T03:46:51;0.20;;;0.20;;
16510;SDS011;8368;48.772;8.754;2023-04-01T03:49:16;0.20;;;0.20;;
16510;SDS011;8368;48.772;8.754;2023-04-01T03:51:43;0.40;;;0.20;;
16510;SDS011;8368;48.772;8.754;2023-04-01T03:54:09;0.40;;;0.40;;
16510;SDS011;8368;48.772;8.754;2023-04-01T03:56:36;0.43;;;0.37;;
16510;SDS011;8368;48.772;8.754;2023-04-01T03:59:03;0.20;;;0.20;;
16510;SDS011;8368;48.772;8.754;2023-04-01T04:01:32;1.60;;;0.30;;
16510;SDS011;8368;48.772;8.754;2023-04-01T04:03:58;0.20;;;0.20;;
16510;SDS011;8368;48.772;8.754;2023-04-01T04:06:24;0.40;;;0.30;;
16510;SDS011;8368;48.772;8.754;2023-04-01T04:08:50;0.30;;;0.30;;
16510;SDS011;8368;48.772;8.754;2023-04-01T04:11:16;0.30;;;0.30;;
16510;SDS011;8368;48.772;8.754;2023-04-01T04:13:42;2.63;;;0.20;;
16510;SDS011;8368;48.772;8.754;2023-04-01T04:16:07;0.17;;;0.17;;
16510;SDS011;8368;48.772;8.754;2023-04-01T04:18:34;0.60;;;0.33;;
16510;SDS011;8368;48.772;8.754;2023-04-01T04:21:00;0.20;;;0.20;;
16510;SDS011;8368;48.772;8.754;2023-04-01T04:23:26;0.20;;;0.20;;
16510;SDS011;8368;48.772;8.754;2023-04-01T04:26:00;0.27;;;0.27;;
16510;SDS011;8368;48.772;8.754;2023-04-01T04:28:29;0.43;;;0.30;;
16510;SDS011;8368;48.772;8.754;2023-04-01T04:30:55;0.20;;;0.20;;
16510;SDS011;8368;48.772;8.754;2023-04-01T04:33:21;0.30;;;0.30;;
16510;SDS011;8368;48.772;8.754;2023-04-01T04:35:48;1.90;;;0.50;;
16510;SDS011;8368;48.772;8.754;2023-04-01T04:38:13;0.10;;;0.10;;
16510;SDS011;8368;48.772;8.754;2023-04-01T04:40:40;0.50;;;0.50;;
16510;SDS011;8368;48.772;8.754;2023-04-01T04:43:06;0.10;;;0.10;;
16510;SDS011;8368;48.772;8.754;2023-04-01T04:45:32;0.20;;;0.20;;
16510;SDS011;8368;48.772;8.754;2023-04-01T04:47:58;0.50;;;0.50;;
16510;SDS011;8368;48.772;8.754;2023-04-01T04:50:24;0.40;;;0.40;;
16510;SDS011;8368;48.772;8.754;2023-04-01T04:52:50;2.03;;;0.70;;
16510;SDS011;8368;48.772;8.754;2023-04-01T04:55:16;3.10;;;0.70;;
16510;SDS011;8368;48.772;8.754;2023-04-01T04:57:41;0.63;;;0.63;;
16510;SDS011;8368;48.772;8.754;2023-04-01T05:00:07;2.43;;;0.63;;
16510;SDS011;8368;48.772;8.754;2023-04-01T05:02:34;1.63;;;0.30;;
16510;SDS011;8368;48.772;8.754;2023-04-01T05:05:00;0.57;;;0.20;;
16510;SDS011;8368;48.772;8.754;2023-04-01T05:07:26;0.40;;;0.40;;
16510;SDS011;8368;48.772;8.754;2023-04-01T05:09:51;0.60;;;0.20;;
16510;SDS011;8368;48.772;8.754;2023-04-01T05:12:17;1.40;;;0.30;;
16510;SDS011;8368;48.772;8.754;2023-04-01T05:14:42;0.67;;;0.47;;
16510;SDS011;8368;48.772;8.754;2023-04-01T05:17:09;0.30;;;0.30;;
16510;SDS011;8368;48.772;8.754;2023-04-01T05:19:38;0.17;;;0.17;;
16510;SDS011;8368;48.772;8.754;2023-04-01T05:22:04;0.40;;;0.30;;
16510;SDS011;8368;48.772;8.754;2023-04-01T05:24:30;0.93;;;0.60;;
16510;SDS011;8368;48.772;8.754;2023-04-01T05:26:56;0.40;;;0.40;;
16510;SDS011;8368;48.772;8.754;2023-04-01T05:29:22;0.60;;;0.60;;
16510;SDS011;8368;48.772;8.754;2023-04-01T05:31:48;0.30;;;0.30;;
16510;SDS011;8368;48.772;8.754;2023-04-01T05:34:14;0.30;;;0.30;;
16510;SDS011;8368;48.772;8.754;2023-04-01T05:36:40;2.43;;;0.40;;
16510;SDS011;8368;48.772;8.754;2023-04-01T05:39:06;0.43;;;0.43;;
16510;SDS011;8368;48.772;8.754;2023-04-01T05:41:34;0.37;;;0.37;;
16510;SDS011;8368;48.772;8.754;2023-04-01T05:44:01;0.60;;;0.30;;
16510;SDS011;8368;48.772;8.754;2023-04-01T05:46:26;0.40;;;0.40;;
16510;SDS011;8368;48.772;8.754;2023-04-01T05:48:52;0.40;;;0.40;;
16510;SDS011;8368;48.772;8.754;2023-04-01T05:51:17;0.50;;;0.50;;
16510;SDS011;8368;48.772;8.754;2023-04-01T05:53:43;1.03;;;0.47;;
16510;SDS011;8368;48.772;8.754;2023-04-01T05:56:08;0.30;;;0.30;;
16510;SDS011;8368;48.772;8.754;2023-04-01T05:58:35;0.53;;;0.53;;
16510;SDS011;8368;48.772;8.754;2023-04-01T06:01:02;0.30;;;0.30;;
16510;SDS011;8368;48.772;8.754;2023-04-01T06:03:28;1.07;;;0.97;;
16510;SDS011;8368;48.772;8.754;2023-04-01T06:05:54;0.30;;;0.30;;
16510;SDS011;8368;48.772;8.754;2023-04-01T06:08:20;0.27;;;0.27;;
16510;SDS011;8368;48.772;8.754;2023-04-01T06:11:01;0.20;;;0.20;;
16510;SDS011;8368;48.772;8.754;2023-04-01T06:21:52;0.30;;;0.30;;
16510;SDS011;8368;48.772;8.754;2023-04-01T06:46:46;0.10;;;0.10;;
16510;SDS011;8368;48.772;8.754;2023-04-01T06:57:46;0.37;;;0.37;;
16510;SDS011;8368;48.772;8.754;2023-04-01T07:00:22;0.20;;;0.20;;
16510;SDS011;8368;48.772;8.754;2023-04-01T07:05:30;0.37;;;0.37;;
16510;SDS011;8368;48.772;8.754;2023-04-01T07:07:57;0.20;;;0.20;;
16510;SDS011;8368;48.772;8.754;2023-04-01T07:10:41;3.87;;;1.63;;
16510;SDS011;8368;48.772;8.754;2023-04-01T07:13:22;5.20;;;3.17;;
16510;SDS011;8368;48.772;8.754;2023-04-01T07:16:05;0.70;;;0.70;;
16510;SDS011;8368;48.772;8.754;2023-04-01T07:18:56;0.83;;;0.60;;
16510;SDS011;8368;48.772;8.754;2023-04-01T07:21:36;0.50;;;0.50;;
16510;SDS011;8368;48.772;8.754;2023-04-01T07:24:22;1.03;;;0.60;;
16510;SDS011;8368;48.772;8.754;2023-04-01T07:26:55;0.57;;;0.57;;
16510;SDS011;8368;48.772;8.754;2023-04-01T07:29:21;0.80;;;0.80;;
16510;SDS011;8368;48.772;8.754;2023-04-01T07:31:51;1.00;;;1.00;;
16510;SDS011;8368;48.772;8.754;2023-04-01T07:34:23;1.23;;;1.23;;
16510;SDS011;8368;48.772;8.754;2023-04-01T07:42:26;0.37;;;0.37;;
16510;SDS011;8368;48.772;8.754;2023-04-01T07:44:59;0.77;;;0.40;;
16510;SDS011;8368;48.772;8.754;2023-04-01T07:47:45;0.70;;;0.50;;
16510;SDS011;8368;48.772;8.754;2023-04-01T07:50:27;4.17;;;0.33;;
16510;SDS011;8368;48.772;8.754;2023-04-01T07:55:29;0.60;;;0.60;;
16510;SDS011;8368;48.772;8.754;2023-04-01T08:00:39;0.47;;;0.47;;
16510;SDS011;8368;48.772;8.754;2023-04-01T08:08:56;0.50;;;0.50;;
16510;SDS011;8368;48.772;8.754;2023-04-01T08:17:15;0.57;;;0.57;;
16510;SDS011;8368;48.772;8.754;2023-04-01T08:19:56;0.73;;;0.73;;
16510;SDS011;8368;48.772;8.754;2023-04-01T08:23:10;1.10;;;1.10;;
16510;SDS011;8368;48.772;8.754;2023-04-01T08:28:46;0.93;;;0.70;;
16510;SDS011;8368;48.772;8.754;2023-04-01T08:31:43;0.70;;;0.70;;
16510;SDS011;8368;48.772;8.754;2023-04-01T08:34:15;1.07;;;0.97;;
16510;SDS011;8368;48.772;8.754;2023-04-01T08:36:46;1.07;;;0.97;;
16510;SDS011;8368;48.772;8.754;2023-04-01T08:47:16;0.90;;;0.90;;
16510;SDS011;8368;48.772;8.754;2023-04-01T09:00:43;0.60;;;0.60;;
16510;SDS011;8368;48.772;8.754;2023-04-01T09:03:27;0.30;;;0.30;;
16510;SDS011;8368;48.772;8.754;2023-04-01T09:11:42;0.70;;;0.70;;
16510;SDS011;8368;48.772;8.754;2023-04-01T09:14:54;0.30;;;0.30;;
16510;SDS011;8368;48.772;8.754;2023-04-01T09:23:40;0.20;;;0.20;;
16510;SDS011;8368;48.772;8.754;2023-04-01T09:29:25;0.27;;;0.27;;
16510;SDS011;8368;48.772;8.754;2023-04-01T09:39:47;0.10;;;0.10;;
16510;SDS011;8368;48.772;8.754;2023-04-01T09:51:15;0.40;;;0.40;;
16510;SDS011;8368;48.772;8.754;2023-04-01T09:54:00;0.10;;;0.10;;
16510;SDS011;8368;48.772;8.754;2023-04-01T10:06:01;0.20;;;0.20;;
16510;SDS011;8368;48.772;8.754;2023-04-01T10:14:27;0.10;;;0.10;;
16510;SDS011;8368;48.772;8.754;2023-04-01T10:17:11;0.50;;;0.50;;
16510;SDS011;8368;48.772;8.754;2023-04-01T10:20:09;0.20;;;0.20;;
16510;SDS011;8368;48.772;8.754;2023-04-01T10:31:20;0.30;;;0.30;;
16510;SDS011;8368;48.772;8.754;2023-04-01T10:50:41;0.50;;;0.50;;
16510;SDS011;8368;48.772;8.754;2023-04-01T11:07:37;0.17;;;0.17;;
16510;SDS011;8368;48.772;8.754;2023-04-01T11:18:17;2.00;;;1.90;;
16510;SDS011;8368;48.772;8.754;2023-04-01T11:24:24;0.30;;;0.30;;
16510;SDS011;8368;48.772;8.754;2023-04-01T11:30:02;0.50;;;0.50;;
16510;SDS011;8368;48.772;8.754;2023-04-01T11:35:40;0.50;;;0.50;;
16510;SDS011;8368;48.772;8.754;2023-04-01T11:38:32;0.20;;;0.20;;
16510;SDS011;8368;48.772;8.754;2023-04-01T11:46:12;0.20;;;0.20;;
16510;SDS011;8368;48.772;8.754;2023-04-01T11:54:24;0.30;;;0.30;;
16510;SDS011;8368;48.772;8.754;2023-04-01T12:00:11;0.30;;;0.30;;
16510;SDS011;8368;48.772;8.754;2023-04-01T12:06:16;0.50;;;0.50;;
16510;SDS011;8368;48.772;8.754;2023-04-01T12:11:59;0.60;;;0.60;;
16510;SDS011;8368;48.772;8.754;2023-04-01T12:14:47;1.67;;;1.57;;
16510;SDS011;8368;48.772;8.754;2023-04-01T12:22:46;0.80;;;0.80;;
16510;SDS011;8368;48.772;8.754;2023-04-01T12:25:56;1.50;;;1.50;;
16510;SDS011;8368;48.772;8.754;2023-04-01T12:31:07;0.50;;;0.50;;
16510;SDS011;8368;48.772;8.754;2023-04-01T12:45:57;0.30;;;0.30;;
16510;SDS011;8368;48.772;8.754;2023-04-01T12:51:12;0.20;;;0.20;;
16510;SDS011;8368;48.772;8.754;2023-04-01T13:05:12;0.40;;;0.40;;
16510;SDS011;8368;48.772;8.754;2023-04-01T13:07:53;0.40;;;0.40;;
16510;SDS011;8368;48.772;8.754;2023-04-01T13:13:29;2.23;;;2.03;;
16510;SDS011;8368;48.772;8.754;2023-04-01T13:15:58;1.57;;;1.47;;
16510;SDS011;8368;48.772;8.754;2023-04-01T13:18:43;1.17;;;1.17;;
16510;SDS011;8368;48.772;8.754;2023-04-01T13:32:59;0.30;;;0.30;;
16510;SDS011;8368;48.772;8.754;2023-04-01T13:35:46;10.13;;;5.23;;
16510;SDS011;8368;48.772;8.754;2023-04-01T13:41:47;1.77;;;1.50;;
16510;SDS011;8368;48.772;8.754;2023-04-01T13:43:58;3.67;;;2.47;;
16510;SDS011;8368;48.772;8.754;2023-04-01T13:58:07;11.80;;;5.50;;
16510;SDS011;8368;48.772;8.754;2023-04-01T14:03:42;1.87;;;1.73;;
16510;SDS011;8368;48.772;8.754;2023-04-01T14:06:19;0.40;;;0.40;;
16510;SDS011;8368;48.772;8.754;2023-04-01T14:20:27;1.60;;;0.60;;
16510;SDS011;8368;48.772;8.754;2023-04-01T14:33:57;1.13;;;1.13;;
16510;SDS011;8368;48.772;8.754;2023-04-01T14:36:34;0.40;;;0.40;;
16510;SDS011;8368;48.772;8.754;2023-04-01T14:42:18;0.40;;;0.40;;
16510;SDS011;8368;48.772;8.754;2023-04-01T14:47:50;0.37;;;0.37;;
16510;SDS011;8368;48.772;8.754;2023-04-01T14:50:24;2.37;;;2.27;;
16510;SDS011;8368;48.772;8.754;2023-04-01T15:03:26;4.23;;;2.77;;
16510;SDS011;8368;48.772;8.754;2023-04-01T15:06:10;0.90;;;0.90;;
16510;SDS011;8368;48.772;8.754;2023-04-01T15:09:01;1.07;;;1.07;;
16510;SDS011;8368;48.772;8.754;2023-04-01T15:14:19;0.40;;;0.40;;
16510;SDS011;8368;48.772;8.754;2023-04-01T15:28:15;0.90;;;0.90;;
16510;SDS011;8368;48.772;8.754;2023-04-01T15:39:12;0.90;;;0.90;;
16510;SDS011;8368;48.772;8.754;2023-04-01T15:42:09;3.10;;;2.40;;
16510;SDS011;8368;48.772;8.754;2023-04-01T15:50:05;1.93;;;1.37;;
16510;SDS011;8368;48.772;8.754;2023-04-01T16:01:05;2.53;;;1.83;;
16510;SDS011;8368;48.772;8.754;2023-04-01T16:11:47;3.40;;;2.10;;
16510;SDS011;8368;48.772;8.754;2023-04-01T16:14:31;1.37;;;1.30;;
16510;SDS011;8368;48.772;8.754;2023-04-01T16:20:12;1.50;;;1.40;;
16510;SDS011;8368;48.772;8.754;2023-04-01T16:28:12;0.97;;;0.97;;
16510;SDS011;8368;48.772;8.754;2023-04-01T16:33:49;1.80;;;1.53;;
16510;SDS011;8368;48.772;8.754;2023-04-01T16:39:08;2.30;;;2.13;;
16510;SDS011;8368;48.772;8.754;2023-04-01T16:41:49;8.27;;;4.93;;
16510;SDS011;8368;48.772;8.754;2023-04-01T16:44:23;3.13;;;2.83;;
16510;SDS011;8368;48.772;8.754;2023-04-01T16:46:54;1.00;;;1.00;;
16510;SDS011;8368;48.772;8.754;2023-04-01T16:49:36;23.07;;;8.27;;
16510;SDS011;8368;48.772;8.754;2023-04-01T16:54:51;17.17;;;6.90;;
16510;SDS011;8368;48.772;8.754;2023-04-01T17:00:15;4.83;;;3.03;;
16510;SDS011;8368;48.772;8.754;2023-04-01T17:02:54;53.83;;;14.97;;
16510;SDS011;8368;48.772;8.754;2023-04-01T17:08:26;23.03;;;8.13;;
16510;SDS011;8368;48.772;8.754;2023-04-01T17:11:06;31.07;;;9.60;;
16510;SDS011;8368;48.772;8.754;2023-04-01T17:13:46;5.53;;;2.50;;
16510;SDS011;8368;48.772;8.754;2023-04-01T17:33:37;10.53;;;6.03;;
16510;SDS011;8368;48.772;8.754;2023-04-01T17:44:40;0.30;;;0.30;;
16510;SDS011;8368;48.772;8.754;2023-04-01T17:50:53;0.70;;;0.70;;
16510;SDS011;8368;48.772;8.754;2023-04-01T17:56:40;0.67;;;0.67;;
16510;SDS011;8368;48.772;8.754;2023-04-01T17:59:07;1.00;;;0.73;;
16510;SDS011;8368;48.772;8.754;2023-04-01T18:01:51;0.43;;;0.43;;
16510;SDS011;8368;48.772;8.754;2023-04-01T18:07:20;0.73;;;0.50;;
16510;SDS011;8368;48.772;8.754;2023-04-01T18:23:54;2.33;;;1.97;;
16510;SDS011;8368;48.772;8.754;2023-04-01T18:26:42;3.13;;;1.93;;
16510;SDS011;8368;48.772;8.754;2023-04-01T18:29:20;4.87;;;2.83;;
16510;SDS011;8368;48.772;8.754;2023-04-01T18:32:00;33.60;;;10.83;;
16510;SDS011;8368;48.772;8.754;2023-04-01T18:37:24;17.93;;;7.07;;
16510;SDS011;8368;48.772;8.754;2023-04-01T18:40:19;21.40;;;5.17;;
16510;SDS011;8368;48.772;8.754;2023-04-01T18:45:50;42.20;;;11.73;;
16510;SDS011;8368;48.772;8.754;2023-04-01T18:50:57;19.73;;;7.40;;
16510;SDS011;8368;48.772;8.754;2023-04-01T18:56:03;6.63;;;3.30;;
16510;SDS011;8368;48.772;8.754;2023-04-01T18:58:35;7.60;;;4.53;;
16510;SDS011;8368;48.772;8.754;2023-04-01T19:01:17;3.87;;;2.23;;
16510;SDS011;8368;48.772;8.754;2023-04-01T19:04:15;5.00;;;2.90;;
16510;SDS011;8368;48.772;8.754;2023-04-01T19:06:56;1.33;;;1.23;;
16510;SDS011;8368;48.772;8.754;2023-04-01T19:17:38;9.67;;;3.60;;
16510;SDS011;8368;48.772;8.754;2023-04-01T19:20:23;1.07;;;1.07;;
16510;SDS011;8368;48.772;8.754;2023-04-01T19:23:15;1.70;;;1.00;;
16510;SDS011;8368;48.772;8.754;2023-04-01T19:26:04;2.43;;;0.90;;
16510;SDS011;8368;48.772;8.754;2023-04-01T19:28:40;0.87;;;0.87;;
16510;SDS011;8368;48.772;8.754;2023-04-01T19:31:32;1.70;;;1.50;;
16510;SDS011;8368;48.772;8.754;2023-04-01T19:39:24;2.07;;;1.87;;
16510;SDS011;8368;48.772;8.754;2023-04-01T19:52:36;1.80;;;1.70;;
16510;SDS011;8368;48.772;8.754;2023-04-01T20:00:25;2.07;;;1.97;;
16510;SDS011;8368;48.772;8.754;2023-04-01T20:03:22;2.37;;;2.20;;
16510;SDS011;8368;48.772;8.754;2023-04-01T20:11:51;1.00;;;1.00;;
16510;SDS011;8368;48.772;8.754;2023-04-01T20:14:43;1.20;;;1.10;;
16510;SDS011;8368;48.772;8.754;2023-04-01T20:27:55;0.60;;;0.60;;
16510;SDS011;8368;48.772;8.754;2023-04-01T20:35:56;0.60;;;0.60;;
16510;SDS011;8368;48.772;8.754;2023-04-01T20:44:14;0.63;;;0.63;;
16510;SDS011;8368;48.772;8.754;2023-04-01T20:52:17;0.60;;;0.60;;
16510;SDS011;8368;48.772;8.754;2023-04-01T20:57:45;0.40;;;0.40;;
16510;SDS011;8368;48.772;8.754;2023-04-01T21:19:03;0.60;;;0.60;;
16510;SDS011;8368;48.772;8.754;2023-04-01T21:35:52;0.80;;;0.80;;
16510;SDS011;8368;48.772;8.754;2023-04-01T21:58:02;0.40;;;0.40;;
16510;SDS011;8368;48.772;8.754;2023-04-01T22:11:22;0.47;;;0.47;;
16510;SDS011;8368;48.772;8.754;2023-04-01T22:15:40;0.43;;;0.40;;
16510;SDS011;8368;48.772;8.754;2023-04-01T22:17:50;0.57;;;0.57;;
16510;SDS011;8368;48.772;8.754;2023-04-01T22:25:31;0.20;;;0.20;;
16510;SDS011;8368;48.772;8.754;2023-04-01T22:28:18;0.90;;;0.30;;
16510;SDS011;8368;48.772;8.754;2023-04-01T22:30:52;0.50;;;0.50;;
16510;SDS011;8368;48.772;8.754;2023-04-01T22:33:31;1.33;;;0.40;;
16510;SDS011;8368;48.772;8.754;2023-04-01T22:44:09;0.30;;;0.27;;
16510;SDS011;8368;48.772;8.754;2023-04-01T22:47:02;0.40;;;0.40;;
16510;SDS011;8368;48.772;8.754;2023-04-01T22:50:15;0.43;;;0.43;;
16510;SDS011;8368;48.772;8.754;2023-04-01T22:52:42;0.40;;;0.40;;
16510;SDS011;8368;48.772;8.754;2023-04-01T22:55:25;0.20;;;0.20;;
16510;SDS011;8368;48.772;8.754;2023-04-01T22:57:58;0.40;;;0.40;;
16510;SDS011;8368;48.772;8.754;2023-04-01T23:00:39;0.47;;;0.47;;
16510;SDS011;8368;48.772;8.754;2023-04-01T23:03:17;0.60;;;0.60;;
16510;SDS011;8368;48.772;8.754;2023-04-01T23:05:51;0.70;;;0.70;;
16510;SDS011;8368;48.772;8.754;2023-04-01T23:08:27;0.40;;;0.40;;
16510;SDS011;8368;48.772;8.754;2023-04-01T23:11:02;0.50;;;0.50;;
16510;SDS011;8368;48.772;8.754;2023-04-01T23:13:32;0.70;;;0.70;;
16510;SDS011;8368;48.772;8.754;2023-04-01T23:16:05;0.50;;;0.50;;
16510;SDS011;8368;48.772;8.754;2023-04-01T23:18:36;0.43;;;0.37;;
16510;SDS011;8368;48.772;8.754;2023-04-01T23:21:18;0.63;;;0.63;;
16510;SDS011;8368;48.772;8.754;2023-04-01T23:24:00;0.30;;;0.30;;
16510;SDS011;8368;48.772;8.754;2023-04-01T23:29:22;0.60;;;0.60;;
16510;SDS011;8368;48.772;8.754;2023-04-01T23:31:57;0.67;;;0.60;;
16510;SDS011;8368;48.772;8.754;2023-04-01T23:34:25;0.47;;;0.47;;
16510;SDS011;8368;48.772;8.754;2023-04-01T23:36:59;0.33;;;0.33;;
16510;SDS011;8368;48.772;8.754;2023-04-01T23:39:39;0.40;;;0.40;;
16510;SDS011;8368;48.772;8.754;2023-04-01T23:44:56;0.40;;;0.40;;
16510;SDS011;8368;48.772;8.754;2023-04-01T23:47:31;0.40;;;0.40;;
16510;SDS011;8368;48.772;8.754;2023-04-01T23:50:13;0.30;;;0.30;;
16510;SDS011;8368;48.772;8.754;2023-04-01T23:52:43;0.40;;;0.40;;
16510;SDS011;8368;48.772;8.754;2023-04-01T23:57:38;0.50;;;0.43;;
